createdAt,value
2018-06-19T00:00:45.808Z,1001.30
2018-06-19T00:01:45.793Z,1001.30
2018-06-19T00:02:45.776Z,1001.30
2018-06-19T00:03:45.758Z,1001.30
2018-06-19T00:04:45.748Z,1001.29
2018-06-19T00:05:45.733Z,1001.34
2018-06-19T00:06:45.723Z,1001.33
2018-06-19T00:07:45.710Z,1001.29
2018-06-19T00:08:45.701Z,1001.34
2018-06-19T00:09:45.685Z,1001.31
2018-06-19T00:10:45.671Z,1001.31
2018-06-19T00:11:45.655Z,1001.30
2018-06-19T00:12:45.649Z,1001.31
2018-06-19T00:13:45.637Z,1001.28
2018-06-19T00:14:45.624Z,1001.29
2018-06-19T00:15:45.607Z,1001.25
2018-06-19T00:16:45.588Z,1001.28
2018-06-19T00:17:45.582Z,1001.25
2018-06-19T00:18:45.569Z,1001.24
2018-06-19T00:19:45.550Z,1001.24
2018-06-19T00:20:45.543Z,1001.25
2018-06-19T00:21:45.532Z,1001.27
2018-06-19T00:22:45.517Z,1001.26
2018-06-19T00:23:45.505Z,1001.30
2018-06-19T00:24:45.489Z,1001.27
2018-06-19T00:25:45.473Z,1001.26
2018-06-19T00:26:45.466Z,1001.30
2018-06-19T00:27:45.464Z,1001.32
2018-06-19T00:28:45.431Z,1001.28
2018-06-19T00:29:45.420Z,1001.29
2018-06-19T00:30:45.412Z,1001.31
2018-06-19T00:31:45.430Z,1001.28
2018-06-19T00:32:45.380Z,1001.31
2018-06-19T00:33:45.367Z,1001.30
2018-06-19T00:34:45.354Z,1001.32
2018-06-19T00:35:45.346Z,1001.31
2018-06-19T00:36:45.331Z,1001.33
2018-06-19T00:37:45.319Z,1001.36
2018-06-19T00:38:45.300Z,1001.32
2018-06-19T00:39:45.290Z,1001.33
2018-06-19T00:40:45.274Z,1001.34
2018-06-19T00:41:45.266Z,1001.34
2018-06-19T00:42:45.255Z,1001.36
2018-06-19T00:43:45.236Z,1001.35
2018-06-19T00:44:45.223Z,1001.35
2018-06-19T00:45:45.217Z,1001.37
2018-06-19T00:46:45.202Z,1001.35
2018-06-19T00:47:45.187Z,1001.36
2018-06-19T00:48:45.174Z,1001.35
2018-06-19T00:49:45.161Z,1001.32
2018-06-19T00:50:45.142Z,1001.37
2018-06-19T00:51:45.126Z,1001.39
2018-06-19T00:52:45.242Z,1001.37
2018-06-19T00:53:45.111Z,1001.39
2018-06-19T00:54:45.108Z,1001.37
2018-06-19T00:55:45.084Z,1001.41
2018-06-19T00:56:45.076Z,1001.41
2018-06-19T00:57:45.052Z,1001.39
2018-06-19T00:58:45.321Z,1001.39
2018-06-19T00:59:45.121Z,1001.39
2018-06-19T01:00:45.043Z,1001.41
2018-06-19T01:01:44.998Z,1001.42
2018-06-19T01:02:44.989Z,1001.42
2018-06-19T01:03:44.972Z,1001.45
2018-06-19T01:04:44.960Z,1001.49
2018-06-19T01:05:44.947Z,1001.45
2018-06-19T01:06:44.934Z,1001.43
2018-06-19T01:07:44.921Z,1001.45
2018-06-19T01:08:44.909Z,1001.44
2018-06-19T01:09:44.899Z,1001.43
2018-06-19T01:10:44.880Z,1001.42
2018-06-19T01:11:44.870Z,1001.38
2018-06-19T01:12:44.860Z,1001.39
2018-06-19T01:13:44.841Z,1001.37
2018-06-19T01:14:44.841Z,1001.42
2018-06-19T01:15:44.816Z,1001.39
2018-06-19T01:16:44.803Z,1001.35
2018-06-19T01:17:44.788Z,1001.36
2018-06-19T01:18:44.778Z,1001.39
2018-06-19T01:19:44.762Z,1001.38
2018-06-19T01:20:44.749Z,1001.36
2018-06-19T01:21:44.739Z,1001.38
2018-06-19T01:22:44.730Z,1001.34
2018-06-19T01:23:44.711Z,1001.36
2018-06-19T01:24:44.695Z,1001.34
2018-06-19T01:25:44.689Z,1001.36
2018-06-19T01:26:44.674Z,1001.36
2018-06-19T01:27:44.664Z,1001.36
2018-06-19T01:28:44.664Z,1001.39
2018-06-19T01:29:44.637Z,1001.40
2018-06-19T01:30:44.627Z,1001.39
2018-06-19T01:31:44.613Z,1001.37
2018-06-19T01:32:44.600Z,1001.39
2018-06-19T01:33:44.583Z,1001.39
2018-06-19T01:34:44.571Z,1001.39
2018-06-19T01:35:44.552Z,1001.33
2018-06-19T01:36:44.547Z,1001.31
2018-06-19T01:37:44.526Z,1001.31
2018-06-19T01:38:44.516Z,1001.31
2018-06-19T01:39:44.504Z,1001.36
2018-06-19T01:40:44.491Z,1001.37
2018-06-19T01:41:44.478Z,1001.36
2018-06-19T01:42:44.463Z,1001.38
2018-06-19T01:43:44.450Z,1001.34
2018-06-19T01:44:44.436Z,1001.35
2018-06-19T01:45:44.417Z,1001.35
2018-06-19T01:46:44.412Z,1001.34
2018-06-19T01:47:44.390Z,1001.35
2018-06-19T01:48:44.376Z,1001.34
2018-06-19T01:49:44.364Z,1001.34
2018-06-19T01:50:44.358Z,1001.30
2018-06-19T01:51:44.345Z,1001.34
2018-06-19T01:52:44.332Z,1001.29
2018-06-19T01:53:44.309Z,1001.32
2018-06-19T01:54:44.306Z,1001.34
2018-06-19T01:55:44.285Z,1001.35
2018-06-19T01:56:44.287Z,1001.36
2018-06-19T01:57:44.255Z,1001.38
2018-06-19T01:58:44.245Z,1001.31
2018-06-19T01:59:44.233Z,1001.29
2018-06-19T02:00:44.220Z,1001.28
2018-06-19T02:01:44.205Z,1001.27
2018-06-19T02:02:44.189Z,1001.27
2018-06-19T02:03:44.182Z,1001.30
2018-06-19T02:04:44.160Z,1001.31
2018-06-19T02:05:44.147Z,1001.33
2018-06-19T02:06:44.141Z,1001.33
2018-06-19T02:07:44.125Z,1001.34
2018-06-19T02:08:44.109Z,1001.32
2018-06-19T02:09:44.096Z,1001.35
2018-06-19T02:10:44.080Z,1001.33
2018-06-19T02:11:44.073Z,1001.32
2018-06-19T02:12:44.057Z,1001.36
2018-06-19T02:13:44.042Z,1001.28
2018-06-19T02:14:44.029Z,1001.29
2018-06-19T02:15:44.016Z,1001.31
2018-06-19T02:16:43.999Z,1001.34
2018-06-19T02:17:43.983Z,1001.31
2018-06-19T02:18:43.976Z,1001.36
2018-06-19T02:19:43.954Z,1001.33
2018-06-19T02:20:43.949Z,1001.34
2018-06-19T02:21:43.931Z,1001.31
2018-06-19T02:22:43.920Z,1001.33
2018-06-19T02:23:43.900Z,1001.33
2018-06-19T02:24:43.884Z,1001.37
2018-06-19T02:25:43.874Z,1001.38
2018-06-19T02:26:43.858Z,1001.38
2018-06-19T02:27:43.849Z,1001.31
2018-06-19T02:28:43.833Z,1001.36
2018-06-19T02:29:43.815Z,1001.32
2018-06-19T02:30:43.803Z,1001.34
2018-06-19T02:31:43.795Z,1001.32
2018-06-19T02:32:43.773Z,1001.33
2018-06-19T02:33:43.761Z,1001.35
2018-06-19T02:34:43.754Z,1001.32
2018-06-19T02:35:43.739Z,1001.33
2018-06-19T02:36:43.725Z,1001.39
2018-06-19T02:37:43.713Z,1001.37
2018-06-19T02:38:43.695Z,1001.41
2018-06-19T02:39:43.684Z,1001.43
2018-06-19T02:40:43.668Z,1001.41
2018-06-19T02:41:43.655Z,1001.40
2018-06-19T02:42:43.639Z,1001.37
2018-06-19T02:43:43.626Z,1001.38
2018-06-19T02:44:43.612Z,1001.39
2018-06-19T02:45:43.603Z,1001.38
2018-06-19T02:46:43.588Z,1001.36
2018-06-19T02:47:43.568Z,1001.36
2018-06-19T02:48:43.565Z,1001.38
2018-06-19T02:49:43.542Z,1001.39
2018-06-19T02:50:43.534Z,1001.41
2018-06-19T02:51:43.513Z,1001.41
2018-06-19T02:52:43.504Z,1001.40
2018-06-19T02:53:43.488Z,1001.41
2018-06-19T02:54:43.478Z,1001.38
2018-06-19T02:55:43.467Z,1001.38
2018-06-19T02:56:43.446Z,1001.41
2018-06-19T02:57:43.436Z,1001.42
2018-06-19T02:58:43.417Z,1001.42
2018-06-19T02:59:43.407Z,1001.42
2018-06-19T03:00:43.395Z,1001.45
2018-06-19T03:01:43.378Z,1001.43
2018-06-19T03:02:43.378Z,1001.44
2018-06-19T03:03:43.356Z,1001.45
2018-06-19T03:04:43.344Z,1001.47
2018-06-19T03:05:43.327Z,1001.49
2018-06-19T03:06:43.317Z,1001.49
2018-06-19T03:07:43.295Z,1001.49
2018-06-19T03:08:43.282Z,1001.48
2018-06-19T03:09:43.266Z,1001.48
2018-06-19T03:10:43.260Z,1001.51
2018-06-19T03:11:43.241Z,1001.49
2018-06-19T03:12:43.225Z,1001.51
2018-06-19T03:13:43.218Z,1001.50
2018-06-19T03:14:43.200Z,1001.49
2018-06-19T03:15:43.211Z,1001.52
2018-06-19T03:16:43.170Z,1001.49
2018-06-19T03:17:43.157Z,1001.56
2018-06-19T03:18:43.144Z,1001.54
2018-06-19T03:19:43.134Z,1001.52
2018-06-19T03:20:43.119Z,1001.50
2018-06-19T03:21:43.109Z,1001.50
2018-06-19T03:22:43.089Z,1001.55
2018-06-19T03:23:43.077Z,1001.55
2018-06-19T03:24:43.071Z,1001.58
2018-06-19T03:25:43.048Z,1001.57
2018-06-19T03:26:43.042Z,1001.61
2018-06-19T03:27:43.019Z,1001.62
2018-06-19T03:28:43.006Z,1001.65
2018-06-19T03:29:42.996Z,1001.61
2018-06-19T03:30:42.981Z,1001.64
2018-06-19T03:31:42.965Z,1001.62
2018-06-19T03:32:42.952Z,1001.62
2018-06-19T03:33:42.936Z,1001.64
2018-06-19T03:34:42.929Z,1001.64
2018-06-19T03:35:42.910Z,1001.65
2018-06-19T03:36:42.894Z,1001.65
2018-06-19T03:37:42.888Z,1001.64
2018-06-19T03:38:42.869Z,1001.69
2018-06-19T03:39:42.856Z,1001.68
2018-06-19T03:40:42.843Z,1001.70
2018-06-19T03:41:42.830Z,1001.71
2018-06-19T03:42:42.817Z,1001.71
2018-06-19T03:43:42.799Z,1001.70
2018-06-19T03:44:42.790Z,1001.70
2018-06-19T03:45:42.778Z,1001.71
2018-06-19T03:46:42.762Z,1001.69
2018-06-19T03:47:42.746Z,1001.73
2018-06-19T03:48:42.736Z,1001.69
2018-06-19T03:49:42.719Z,1001.69
2018-06-19T03:50:42.705Z,1001.72
2018-06-19T03:51:42.688Z,1001.76
2018-06-19T03:52:42.677Z,1001.76
2018-06-19T03:53:42.659Z,1001.74
2018-06-19T03:54:42.650Z,1001.74
2018-06-19T03:55:42.627Z,1001.76
2018-06-19T03:56:42.624Z,1001.78
2018-06-19T03:57:42.602Z,1001.78
2018-06-19T03:58:42.600Z,1001.77
2018-06-19T03:59:42.576Z,1001.80
2018-06-19T04:00:42.558Z,1001.78
2018-06-19T04:01:42.547Z,1001.79
2018-06-19T04:02:42.535Z,1001.80
2018-06-19T04:03:42.525Z,1001.75
2018-06-19T04:04:42.506Z,1001.78
2018-06-19T04:05:42.494Z,1001.77
2018-06-19T04:06:42.481Z,1001.79
2018-06-19T04:07:42.465Z,1001.83
2018-06-19T04:08:42.446Z,1001.87
2018-06-19T04:09:42.436Z,1001.85
2018-06-19T04:10:43.132Z,1001.84
2018-06-19T04:11:42.404Z,1001.84
2018-06-19T04:12:42.388Z,1001.82
2018-06-19T04:13:42.376Z,1001.86
2018-06-19T04:14:42.360Z,1001.87
2018-06-19T04:15:42.347Z,1001.88
2018-06-19T04:16:42.331Z,1001.90
2018-06-19T04:17:42.318Z,1001.92
2018-06-19T04:18:42.312Z,1001.94
2018-06-19T04:19:42.289Z,1001.90
2018-06-19T04:20:42.282Z,1001.90
2018-06-19T04:21:42.260Z,1001.89
2018-06-19T04:22:42.248Z,1001.89
2018-06-19T04:23:42.235Z,1001.90
2018-06-19T04:24:42.219Z,1001.89
2018-06-19T04:25:42.209Z,1001.88
2018-06-19T04:26:42.194Z,1001.92
2018-06-19T04:27:42.184Z,1001.98
2018-06-19T04:28:42.170Z,1001.99
2018-06-19T04:29:42.152Z,1001.96
2018-06-19T04:30:42.136Z,1001.98
2018-06-19T04:31:42.151Z,1001.94
2018-06-19T04:32:42.110Z,1001.96
2018-06-19T04:33:42.097Z,1001.99
2018-06-19T04:34:42.085Z,1001.95
2018-06-19T04:35:42.065Z,1001.97
2018-06-19T04:36:42.053Z,1001.93
2018-06-19T04:37:42.037Z,1001.91
2018-06-19T04:38:42.031Z,1001.90
2018-06-19T04:39:42.010Z,1001.90
2018-06-19T04:40:42.003Z,1001.95
2018-06-19T04:41:41.990Z,1001.97
2018-06-19T04:42:41.977Z,1001.95
2018-06-19T04:43:41.967Z,1001.92
2018-06-19T04:44:41.955Z,1001.97
2018-06-19T04:45:41.933Z,1001.96
2018-06-19T04:46:41.914Z,1001.93
2018-06-19T04:47:41.900Z,1001.88
2018-06-19T04:48:41.904Z,1001.86
2018-06-19T04:49:41.900Z,1001.83
2018-06-19T04:50:41.859Z,1001.82
2018-06-19T04:51:41.849Z,1001.81
2018-06-19T04:52:41.830Z,1001.84
2018-06-19T04:53:41.820Z,1001.84
2018-06-19T04:54:41.812Z,1001.85
2018-06-19T04:55:41.793Z,1001.88
2018-06-19T04:56:41.780Z,1001.92
2018-06-19T04:57:41.765Z,1001.93
2018-06-19T04:58:41.751Z,1001.89
2018-06-19T04:59:41.741Z,1001.89
2018-06-19T05:00:41.729Z,1001.87
2018-06-19T05:01:41.713Z,1001.87
2018-06-19T05:02:41.694Z,1001.83
2018-06-19T05:03:41.686Z,1001.83
2018-06-19T05:04:41.674Z,1001.85
2018-06-19T05:05:41.663Z,1001.81
2018-06-19T05:06:41.703Z,1001.81
2018-06-19T05:07:41.631Z,1001.81
2018-06-19T05:08:41.616Z,1001.80
2018-06-19T05:09:41.612Z,1001.84
2018-06-19T05:10:41.599Z,1001.79
2018-06-19T05:11:41.581Z,1001.80
2018-06-19T05:12:41.568Z,1001.82
2018-06-19T05:13:41.558Z,1001.86
2018-06-19T05:14:41.539Z,1001.89
2018-06-19T05:15:41.530Z,1001.95
2018-06-19T05:16:41.513Z,1001.94
2018-06-19T05:17:41.504Z,1002.00
2018-06-19T05:18:41.497Z,1002.02
2018-06-19T05:19:41.481Z,1002.06
2018-06-19T05:20:41.475Z,1002.04
2018-06-19T05:21:41.452Z,1002.08
2018-06-19T05:22:41.447Z,1002.07
2018-06-19T05:23:41.424Z,1002.11
2018-06-19T05:24:41.412Z,1002.16
2018-06-19T05:25:41.406Z,1002.15
2018-06-19T05:26:41.397Z,1002.21
2018-06-19T05:27:41.374Z,1002.18
2018-06-19T05:28:41.365Z,1002.24
2018-06-19T05:29:41.359Z,1002.28
2018-06-19T05:30:41.346Z,1002.26
2018-06-19T05:31:41.333Z,1002.27
2018-06-19T05:32:41.324Z,1002.31
2018-06-19T05:33:41.305Z,1002.29
2018-06-19T05:34:41.294Z,1002.28
2018-06-19T05:35:41.281Z,1002.31
2018-06-19T05:36:41.265Z,1002.31
2018-06-19T05:37:41.259Z,1002.34
2018-06-19T05:38:41.239Z,1002.40
2018-06-19T05:39:41.233Z,1002.39
2018-06-19T05:40:41.221Z,1002.43
2018-06-19T05:41:41.203Z,1002.46
2018-06-19T05:42:41.199Z,1002.47
2018-06-19T05:43:41.190Z,1002.51
2018-06-19T05:44:41.172Z,1002.51
2018-06-19T05:45:41.166Z,1002.53
2018-06-19T05:46:41.144Z,1002.53
2018-06-19T05:47:41.130Z,1002.56
2018-06-19T05:48:41.120Z,1002.60
2018-06-19T05:49:41.108Z,1002.59
2018-06-19T05:50:41.098Z,1002.59
2018-06-19T05:51:41.089Z,1002.60
2018-06-19T05:52:41.069Z,1002.57
2018-06-19T05:53:41.060Z,1002.59
2018-06-19T05:54:41.050Z,1002.56
2018-06-19T05:55:41.039Z,1002.56
2018-06-19T05:56:41.034Z,1002.57
2018-06-19T05:57:41.015Z,1002.59
2018-06-19T05:58:41.001Z,1002.59
2018-06-19T05:59:40.995Z,1002.61
2018-06-19T06:00:41.015Z,1002.64
2018-06-19T06:01:40.970Z,1002.66
2018-06-19T06:02:40.959Z,1002.67
2018-06-19T06:03:40.948Z,1002.70
2018-06-19T06:04:40.931Z,1002.67
2018-06-19T06:05:40.945Z,1002.70
2018-06-19T06:06:40.915Z,1002.72
2018-06-19T06:07:40.902Z,1002.70
2018-06-19T06:08:40.898Z,1002.71
2018-06-19T06:09:40.877Z,1002.69
2018-06-19T06:10:40.864Z,1002.71
2018-06-19T06:11:40.856Z,1002.68
2018-06-19T06:12:40.858Z,1002.72
2018-06-19T06:13:40.832Z,1002.74
2018-06-19T06:14:40.826Z,1002.75
2018-06-19T06:15:40.818Z,1002.74
2018-06-19T06:16:40.965Z,1002.74
2018-06-19T06:17:40.790Z,1002.75
2018-06-19T06:18:40.781Z,1002.73
2018-06-19T06:19:40.764Z,1002.71
2018-06-19T06:20:40.755Z,1002.77
2018-06-19T06:21:40.742Z,1002.78
2018-06-19T06:22:40.733Z,1002.75
2018-06-19T06:23:40.729Z,1002.72
2018-06-19T06:24:40.711Z,1002.77
2018-06-19T06:25:40.706Z,1002.75
2018-06-19T06:26:40.694Z,1002.78
2018-06-19T06:27:40.678Z,1002.76
2018-06-19T06:28:40.674Z,1002.73
2018-06-19T06:29:40.655Z,1002.71
2018-06-19T06:30:40.646Z,1002.74
2018-06-19T06:31:40.634Z,1002.72
2018-06-19T06:32:40.630Z,1002.73
2018-06-19T06:33:40.614Z,1002.72
2018-06-19T06:34:40.622Z,1002.72
2018-06-19T06:35:40.592Z,1002.73
2018-06-19T06:36:40.589Z,1002.70
2018-06-19T06:37:40.576Z,1002.71
2018-06-19T06:38:40.566Z,1002.73
2018-06-19T06:39:40.553Z,1002.70
2018-06-19T06:40:40.537Z,1002.69
2018-06-19T06:41:40.534Z,1002.74
2018-06-19T06:42:40.515Z,1002.70
2018-06-19T06:43:40.512Z,1002.74
2018-06-19T06:44:40.517Z,1002.69
2018-06-19T06:45:40.483Z,1002.70
2018-06-19T06:46:40.478Z,1002.75
2018-06-19T06:47:40.467Z,1002.73
2018-06-19T06:48:40.457Z,1002.71
2018-06-19T06:49:40.447Z,1002.69
2018-06-19T06:50:40.441Z,1002.71
2018-06-19T06:51:40.419Z,1002.67
2018-06-19T06:52:40.416Z,1002.69
2018-06-19T06:53:40.405Z,1002.70
2018-06-19T06:54:40.384Z,1002.68
2018-06-19T06:55:40.383Z,1002.67
2018-06-19T06:56:40.366Z,1002.72
2018-06-19T06:57:40.354Z,1002.71
2018-06-19T06:58:40.345Z,1002.74
2018-06-19T06:59:40.342Z,1002.74
2018-06-19T07:00:40.328Z,1002.78
2018-06-19T07:01:40.319Z,1002.75
2018-06-19T07:02:40.309Z,1002.73
2018-06-19T07:03:40.297Z,1002.70
2018-06-19T07:04:40.284Z,1002.75
2018-06-19T07:05:40.270Z,1002.74
2018-06-19T07:06:40.263Z,1002.76
2018-06-19T07:07:40.312Z,1002.76
2018-06-19T07:08:40.241Z,1002.78
2018-06-19T07:09:40.234Z,1002.73
2018-06-19T07:10:40.220Z,1002.73
2018-06-19T07:11:40.207Z,1002.76
2018-06-19T07:12:40.204Z,1002.72
2018-06-19T07:13:40.195Z,1002.73
2018-06-19T07:14:40.185Z,1002.68
2018-06-19T07:15:40.195Z,1002.74
2018-06-19T07:16:40.162Z,1002.75
2018-06-19T07:17:40.143Z,1002.75
2018-06-19T07:18:40.137Z,1002.77
2018-06-19T07:19:40.127Z,1002.78
2018-06-19T07:20:40.124Z,1002.72
2018-06-19T07:21:40.108Z,1002.71
2018-06-19T07:22:40.099Z,1002.71
2018-06-19T07:23:40.083Z,1002.73
2018-06-19T07:24:40.073Z,1002.82
2018-06-19T07:25:40.070Z,1002.76
2018-06-19T07:26:40.054Z,1002.74
2018-06-19T07:27:40.047Z,1002.78
2018-06-19T07:28:40.032Z,1002.79
2018-06-19T07:29:40.028Z,1002.82
2018-06-19T07:30:40.020Z,1002.84
2018-06-19T07:31:40.009Z,1002.85
2018-06-19T07:32:39.993Z,1002.88
2018-06-19T07:33:39.984Z,1002.85
2018-06-19T07:34:39.988Z,1002.86
2018-06-19T07:35:39.977Z,1002.84
2018-06-19T07:36:40.008Z,1002.84
2018-06-19T07:37:39.958Z,1002.88
2018-06-19T07:38:39.945Z,1002.87
2018-06-19T07:39:39.932Z,1002.92
2018-06-19T07:40:39.932Z,1002.92
2018-06-19T07:41:39.926Z,1002.88
2018-06-19T07:42:39.910Z,1002.88
2018-06-19T07:43:39.904Z,1002.89
2018-06-19T07:44:39.893Z,1002.88
2018-06-19T07:45:39.887Z,1002.86
2018-06-19T07:46:39.887Z,1002.92
2018-06-19T07:47:39.874Z,1002.90
2018-06-19T07:48:39.868Z,1002.89
2018-06-19T07:49:39.859Z,1002.93
2018-06-19T07:50:39.855Z,1002.96
2018-06-19T07:51:39.849Z,1002.96
2018-06-19T07:52:39.846Z,1002.93
2018-06-19T07:53:39.829Z,1002.94
2018-06-19T07:54:39.830Z,1002.91
2018-06-19T07:55:39.872Z,1002.94
2018-06-19T07:56:39.812Z,1002.95
2018-06-19T07:57:39.816Z,1002.98
2018-06-19T07:58:39.796Z,1002.97
2018-06-19T07:59:39.795Z,1003.03
2018-06-19T08:00:39.788Z,1003.07
2018-06-19T08:01:39.783Z,1003.03
2018-06-19T08:02:39.770Z,1003.02
2018-06-19T08:03:39.766Z,1003.04
2018-06-19T08:04:39.760Z,1003.01
2018-06-19T08:05:39.758Z,1003.05
2018-06-19T08:06:39.750Z,1003.00
2018-06-19T08:07:39.744Z,1002.98
2018-06-19T08:08:39.734Z,1002.99
2018-06-19T08:09:39.728Z,1003.01
2018-06-19T08:10:39.715Z,1003.03
2018-06-19T08:11:39.719Z,1003.02
2018-06-19T08:12:39.705Z,1002.97
2018-06-19T08:13:39.703Z,1003.03
2018-06-19T08:14:39.699Z,1003.00
2018-06-19T08:15:39.687Z,1002.95
2018-06-19T08:16:39.688Z,1002.93
2018-06-19T08:17:39.680Z,1002.94
2018-06-19T08:18:39.672Z,1002.92
2018-06-19T08:19:39.664Z,1002.97
2018-06-19T08:20:39.658Z,1002.95
2018-06-19T08:21:39.652Z,1002.94
2018-06-19T08:22:39.680Z,1002.94
2018-06-19T08:23:39.638Z,1002.90
2018-06-19T08:24:39.632Z,1002.93
2018-06-19T08:25:39.632Z,1002.95
2018-06-19T08:26:39.626Z,1002.93
2018-06-19T08:27:39.614Z,1002.97
2018-06-19T08:28:39.619Z,1002.96
2018-06-19T08:29:39.612Z,1002.94
2018-06-19T08:30:39.598Z,1002.96
2018-06-19T08:31:39.592Z,1002.94
2018-06-19T08:32:39.594Z,1002.93
2018-06-19T08:33:39.589Z,1002.97
2018-06-19T08:34:39.586Z,1002.92
2018-06-19T08:35:39.579Z,1002.92
2018-06-19T08:36:39.572Z,1002.89
2018-06-19T08:37:39.570Z,1002.92
2018-06-19T08:38:39.566Z,1002.93
2018-06-19T08:39:39.559Z,1002.89
2018-06-19T08:40:39.550Z,1002.92
2018-06-19T08:41:39.574Z,1002.93
2018-06-19T08:42:39.537Z,1002.92
2018-06-19T08:43:39.537Z,1002.91
2018-06-19T08:44:39.528Z,1002.92
2018-06-19T08:45:39.528Z,1002.91
2018-06-19T08:46:39.521Z,1002.88
2018-06-19T08:47:39.515Z,1002.90
2018-06-19T08:48:39.510Z,1002.92
2018-06-19T08:49:39.507Z,1002.93
2018-06-19T08:50:39.509Z,1002.89
2018-06-19T08:51:39.494Z,1002.92
2018-06-19T08:52:39.493Z,1002.86
2018-06-19T08:53:39.479Z,1002.96
2018-06-19T08:54:39.476Z,1002.88
2018-06-19T08:55:39.477Z,1002.94
2018-06-19T08:56:39.464Z,1002.93
2018-06-19T08:57:39.464Z,1002.94
2018-06-19T08:58:39.460Z,1002.98
2018-06-19T08:59:39.452Z,1003.03
2018-06-19T09:00:39.451Z,1002.99
2018-06-19T09:01:39.445Z,1002.96
2018-06-19T09:02:39.438Z,1002.96
2018-06-19T09:03:39.425Z,1002.95
2018-06-19T09:04:39.422Z,1002.97
2018-06-19T09:05:39.422Z,1002.96
2018-06-19T09:06:39.420Z,1002.98
2018-06-19T09:07:39.410Z,1002.98
2018-06-19T09:08:39.414Z,1002.98
2018-06-19T09:09:39.397Z,1002.98
2018-06-19T09:10:39.394Z,1002.96
2018-06-19T09:11:39.391Z,1002.97
2018-06-19T09:12:39.425Z,1002.97
2018-06-19T09:13:39.379Z,1002.94
2018-06-19T09:14:39.378Z,1002.95
2018-06-19T09:15:39.369Z,1002.93
2018-06-19T09:16:39.363Z,1002.87
2018-06-19T09:17:39.356Z,1002.90
2018-06-19T09:18:39.356Z,1002.94
2018-06-19T09:19:39.366Z,1002.91
2018-06-19T09:20:39.345Z,1002.92
2018-06-19T09:21:39.372Z,1002.91
2018-06-19T09:22:39.344Z,1002.91
2018-06-19T09:23:39.334Z,1002.88
2018-06-19T09:24:39.324Z,1002.95
2018-06-19T09:25:39.321Z,1002.94
2018-06-19T09:26:39.315Z,1002.91
2018-06-19T09:27:39.312Z,1002.89
2018-06-19T09:28:39.312Z,1002.86
2018-06-19T09:29:39.308Z,1002.90
2018-06-19T09:30:39.298Z,1002.90
2018-06-19T09:31:39.384Z,1002.86
2018-06-19T09:32:39.287Z,1002.88
2018-06-19T09:33:39.286Z,1002.85
2018-06-19T09:34:39.279Z,1002.90
2018-06-19T09:35:39.273Z,1002.86
2018-06-19T09:36:39.264Z,1002.81
2018-06-19T09:37:39.266Z,1002.88
2018-06-19T09:38:39.260Z,1002.84
2018-06-19T09:39:39.273Z,1002.85
2018-06-19T09:40:39.247Z,1002.88
2018-06-19T09:41:39.244Z,1002.86
2018-06-19T09:42:39.244Z,1002.85
2018-06-19T09:43:39.237Z,1002.87
2018-06-19T09:44:39.231Z,1002.90
2018-06-19T09:45:39.232Z,1002.88
2018-06-19T09:46:39.219Z,1002.94
2018-06-19T09:47:39.214Z,1002.84
2018-06-19T09:48:39.211Z,1002.88
2018-06-19T09:49:39.204Z,1002.89
2018-06-19T09:50:39.198Z,1002.91
2018-06-19T09:51:39.202Z,1002.90
2018-06-19T09:52:39.195Z,1002.89
2018-06-19T09:53:39.233Z,1002.92
2018-06-19T09:54:39.193Z,1002.90
2018-06-19T09:55:39.176Z,1002.91
2018-06-19T09:56:39.176Z,1002.87
2018-06-19T09:57:39.166Z,1002.87
2018-06-19T09:58:39.160Z,1002.80
2018-06-19T09:59:39.231Z,1002.90
2018-06-19T10:00:39.156Z,1002.84
2018-06-19T10:01:39.144Z,1002.91
2018-06-19T10:02:39.147Z,1002.90
2018-06-19T10:03:39.137Z,1002.87
2018-06-19T10:04:39.134Z,1002.87
2018-06-19T10:05:39.182Z,1002.89
2018-06-19T10:06:39.177Z,1002.92
2018-06-19T10:07:39.118Z,1002.90
2018-06-19T10:08:39.112Z,1002.96
2018-06-19T10:09:39.110Z,1002.90
2018-06-19T10:10:39.102Z,1002.98
2018-06-19T10:11:39.097Z,1002.97
2018-06-19T10:12:39.093Z,1002.98
2018-06-19T10:13:39.086Z,1002.97
2018-06-19T10:14:39.083Z,1002.99
2018-06-19T10:15:39.077Z,1003.00
2018-06-19T10:16:39.074Z,1003.00
2018-06-19T10:17:39.071Z,1003.03
2018-06-19T10:18:39.064Z,1003.02
2018-06-19T10:19:39.064Z,1003.03
2018-06-19T10:20:39.054Z,1003.02
2018-06-19T10:21:39.054Z,1003.04
2018-06-19T10:22:39.051Z,1003.03
2018-06-19T10:23:39.052Z,1002.97
2018-06-19T10:24:39.048Z,1003.02
2018-06-19T10:25:39.042Z,1002.99
2018-06-19T10:26:39.048Z,1003.03
2018-06-19T10:27:39.039Z,1003.09
2018-06-19T10:28:39.033Z,1003.13
2018-06-19T10:29:39.032Z,1003.15
2018-06-19T10:30:39.029Z,1003.10
2018-06-19T10:31:39.026Z,1003.11
2018-06-19T10:32:39.022Z,1003.08
2018-06-19T10:33:39.015Z,1003.09
2018-06-19T10:34:39.015Z,1003.04
2018-06-19T10:35:39.005Z,1002.99
2018-06-19T10:36:38.998Z,1003.00
2018-06-19T10:37:38.995Z,1003.04
2018-06-19T10:38:38.999Z,1003.03
2018-06-19T10:39:38.986Z,1003.05
2018-06-19T10:40:38.988Z,1003.05
2018-06-19T10:41:38.977Z,1003.05
2018-06-19T10:42:38.974Z,1003.05
2018-06-19T10:43:38.966Z,1003.09
2018-06-19T10:44:38.960Z,1003.11
2018-06-19T10:45:38.963Z,1003.09
2018-06-19T10:46:38.953Z,1003.12
2018-06-19T10:47:38.953Z,1003.13
2018-06-19T10:48:38.941Z,1003.11
2018-06-19T10:49:38.935Z,1003.10
2018-06-19T10:50:38.934Z,1003.11
2018-06-19T10:51:38.924Z,1003.13
2018-06-19T10:52:38.931Z,1003.11
2018-06-19T10:53:38.922Z,1003.08
2018-06-19T10:54:38.918Z,1003.10
2018-06-19T10:55:38.906Z,1003.08
2018-06-19T10:56:38.922Z,1003.09
2018-06-19T10:57:38.902Z,1003.12
2018-06-19T10:58:38.896Z,1003.11
2018-06-19T10:59:38.893Z,1003.13
2018-06-19T11:00:38.881Z,1003.14
2018-06-19T11:01:38.892Z,1003.10
2018-06-19T11:02:38.887Z,1003.12
2018-06-19T11:03:38.871Z,1003.10
2018-06-19T11:04:38.864Z,1003.12
2018-06-19T11:05:38.858Z,1003.13
2018-06-19T11:06:38.855Z,1003.13
2018-06-19T11:07:38.852Z,1003.17
2018-06-19T11:08:38.845Z,1003.17
2018-06-19T11:09:38.838Z,1003.16
2018-06-19T11:10:38.836Z,1003.10
2018-06-19T11:11:38.858Z,1003.17
2018-06-19T11:12:38.866Z,1003.16
2018-06-19T11:13:38.825Z,1003.16
2018-06-19T11:14:38.816Z,1003.20
2018-06-19T11:15:38.815Z,1003.15
2018-06-19T11:16:38.807Z,1003.20
2018-06-19T11:17:38.799Z,1003.21
2018-06-19T11:18:38.798Z,1003.24
2018-06-19T11:19:38.796Z,1003.18
2018-06-19T11:20:38.792Z,1003.23
2018-06-19T11:21:38.790Z,1003.22
2018-06-19T11:22:38.781Z,1003.20
2018-06-19T11:23:38.777Z,1003.22
2018-06-19T11:24:38.764Z,1003.27
2018-06-19T11:25:38.850Z,1003.25
2018-06-19T11:26:38.761Z,1003.27
2018-06-19T11:27:38.755Z,1003.28
2018-06-19T11:28:38.751Z,1003.24
2018-06-19T11:29:38.742Z,1003.23
2018-06-19T11:30:38.735Z,1003.28
2018-06-19T11:31:38.732Z,1003.27
2018-06-19T11:32:38.728Z,1003.28
2018-06-19T11:33:38.726Z,1003.30
2018-06-19T11:34:38.716Z,1003.26
2018-06-19T11:35:38.710Z,1003.24
2018-06-19T11:36:38.739Z,1003.27
2018-06-19T11:37:38.706Z,1003.24
2018-06-19T11:38:38.705Z,1003.28
2018-06-19T11:39:38.693Z,1003.25
2018-06-19T11:40:38.694Z,1003.26
2018-06-19T11:41:38.687Z,1003.31
2018-06-19T11:42:38.674Z,1003.26
2018-06-19T11:43:38.674Z,1003.26
2018-06-19T11:44:38.691Z,1003.25
2018-06-19T11:45:38.665Z,1003.22
2018-06-19T11:46:38.661Z,1003.24
2018-06-19T11:47:38.655Z,1003.27
2018-06-19T11:48:38.655Z,1003.25
2018-06-19T11:49:38.646Z,1003.30
2018-06-19T11:50:38.642Z,1003.27
2018-06-19T11:51:38.642Z,1003.25
2018-06-19T11:52:38.635Z,1003.27
2018-06-19T11:53:38.633Z,1003.28
2018-06-19T11:54:38.683Z,1003.30
2018-06-19T11:55:38.616Z,1003.30
2018-06-19T11:56:38.614Z,1003.29
2018-06-19T11:57:38.620Z,1003.26
2018-06-19T11:58:38.603Z,1003.26
2018-06-19T11:59:38.606Z,1003.29
2018-06-19T12:00:38.597Z,1003.33
2018-06-19T12:01:38.597Z,1003.27
2018-06-19T12:02:38.591Z,1003.34
2018-06-19T12:03:38.581Z,1003.29
2018-06-19T12:04:38.578Z,1003.31
2018-06-19T12:05:38.578Z,1003.27